Centenario Blu — 3FXD7 — position and weather

sailwx.info

Track history (hours):
 
Tides and Currents Weather Stations Pressure Air Temp Water Temp Dewpoint Dewpoint Depression Visibility Wind Speed Wind Dir Waves Ship Positions

Centenario Blu

Last reported at 2015-May-08 17:12 UTC. Time now 2015-Jul-02 23:10 UTC.
Position N 33°25' E 128°26'.
Warning: this ship's position is 55 days out of date.

Length 190 m; draft 10.5 m.

Type: Cargo ship. MMSI: 356832000.

Date/timePositionNaut miles runAvg speedWind from/ knotsBaromVisibWave heightAir tempDewpointWater temp
2015-May-08 17:12N 33°25' E 128°26'19512.2
2015-May-08 01:10N 31°41' E 125°09'811.8
2015-May-08 00:32N 31°37' E 125°02'1211.9
2015-May-07 23:33N 31°31' E 124°50'1212.0
2015-May-07 22:33N 31°25' E 124°38'1312.4
2015-May-07 21:31N 31°18' E 124°26'1513.0
2015-May-07 20:21N 31°10' E 124°10'1013.0
2015-May-07 19:33N 31°06' E 123°60'1313.0
2015-May-07 18:33N 31°05' E 123°45'1412.1
2015-May-07 17:26N 31°05' E 123°29'1011.2
2015-May-07 16:34N 31°04' E 123°17'1110.9
2015-May-07 15:34N 31°04' E 123°05'1110.8
2015-May-07 14:34N 31°04' E 122°52'1110.7
2015-May-07 13:33N 31°04' E 122°39'10 9.8
2015-May-07 12:34N 31°05' E 122°28'9 8.5
2015-May-07 11:34N 31°06' E 122°18'1414.3
2015-May-07 10:34N 31°14' E 122°04'1514.6
2015-May-07 09:33N 31°18' E 121°48'1211.6
2015-May-07 08:33N 31°23' E 121°35'6 6.0
2015-May-07 07:33N 31°26' E 121°29'8 8.4
2015-May-07 06:33N 31°32' E 121°22'1111.4
2015-May-07 05:33N 31°40' E 121°13'1313.1
2015-May-07 04:33N 31°47' E 120°60'1312.8
2015-May-07 03:33N 31°58' E 120°51'1312.7
2015-May-07 02:33N 31°60' E 120°37'9 8.5
2015-May-07 01:33N 31°59' E 120°27'1111.1
2015-May-07 00:34N 31°56' E 120°14'1010.2
2015-May-06 23:33N 31°58' E 120°02'9 9.0
2015-May-06 22:33N 32°05' E 119°55'1 0.6
2015-May-06 21:30N 32°05' E 119°56'0 0.2
2015-May-06 20:28N 32°05' E 119°56'0 0.1
2015-May-06 19:28N 32°05' E 119°56'0 0.0
2015-May-06 18:15N 32°05' E 119°56'0 0.0
2015-May-06 16:16N 32°05' E 119°56'0 0.0
2015-May-06 15:04N 32°05' E 119°56'0 0.1
2015-May-06 14:24N 32°05' E 119°56'0 0.2
2015-May-06 13:33N 32°05' E 119°56'10 9.9
2015-May-06 12:33N 32°15' E 119°52'10 7.9
2015-May-06 11:15N 32°13' E 119°40'  
2015-Apr-30 04:08N 32°13' E 119°54'813.2
2015-Apr-30 03:33N 32°05' E 119°55'1111.3
2015-Apr-30 02:33N 31°57' E 120°05'1110.7
2015-Apr-30 01:33N 31°57' E 120°18'1 1.0
2015-Apr-30 00:31N 31°57' E 120°19'0 0.0
2015-Apr-29 23:31N 31°57' E 120°19'0 0.0
2015-Apr-29 22:25N 31°57' E 120°19'0 0.0
2015-Apr-29 21:31N 31°57' E 120°19'0 0.0
2015-Apr-29 20:25N 31°57' E 120°19'0 0.0
2015-Apr-29 19:31N 31°57' E 120°19'0 0.0
2015-Apr-29 18:31N 31°57' E 120°19'0 0.0
2015-Apr-29 17:31N 31°57' E 120°19'0 0.0
2015-Apr-29 16:31N 31°57' E 120°19'0 0.0
2015-Apr-29 15:31N 31°57' E 120°19'0 0.0
2015-Apr-29 14:31N 31°57' E 120°19'0 0.0
2015-Apr-29 13:25N 31°57' E 120°19'0 0.0
2015-Apr-29 12:31N 31°57' E 120°19'0 0.0
2015-Apr-29 11:13N 31°57' E 120°19'0 0.0
2015-Apr-29 10:19N 31°57' E 120°19'0 0.0
2015-Apr-29 09:31N 31°57' E 120°19'0 0.0
2015-Apr-29 08:25N 31°57' E 120°19'0 0.0
2015-Apr-29 07:25N 31°57' E 120°19'0 0.0
2015-Apr-29 06:31N 31°57' E 120°19'0 0.0
2015-Apr-29 04:31N 31°57' E 120°19'0 0.0
2015-Apr-29 03:19N 31°57' E 120°19'0 0.0
2015-Apr-29 02:31N 31°57' E 120°19'0 0.0
2015-Apr-29 01:32N 31°57' E 120°19'0 0.0
2015-Apr-29 00:31N 31°57' E 120°19'0 0.0
2015-Apr-28 23:25N 31°57' E 120°19'0 0.0
2015-Apr-28 22:19N 31°57' E 120°19'0 0.0
2015-Apr-28 21:31N 31°57' E 120°19'0 0.0
2015-Apr-28 20:13N 31°57' E 120°19'0 0.0
2015-Apr-28 19:31N 31°57' E 120°19'0 0.0
2015-Apr-28 18:31N 31°57' E 120°19'0 0.0
2015-Apr-28 17:13N 31°57' E 120°19'  
Track history (hours):
 
Tides and Currents Weather Stations Pressure Air Temp Water Temp Dewpoint Dewpoint Depression Visibility Wind Speed Wind Dir Waves Ship Positions

Centenario Blu

Last reported at 2015-May-08 17:12 UTC. Time now 2015-Jul-02 23:10 UTC.
Position N 33°25' E 128°26'.
Warning: this ship's position is 55 days out of date.

Length 190 m; draft 10.5 m.

Type: Cargo ship. MMSI: 356832000.

Date/timePositionNaut miles runAvg speedWind from/ knotsBaromVisibWave heightAir tempDewpointWater temp
2015-May-08 17:12N 33°25' E 128°26'19512.2
2015-May-08 01:10N 31°41' E 125°09'811.8
2015-May-08 00:32N 31°37' E 125°02'1211.9
2015-May-07 23:33N 31°31' E 124°50'1212.0
2015-May-07 22:33N 31°25' E 124°38'1312.4
2015-May-07 21:31N 31°18' E 124°26'1513.0
2015-May-07 20:21N 31°10' E 124°10'1013.0
2015-May-07 19:33N 31°06' E 123°60'1313.0
2015-May-07 18:33N 31°05' E 123°45'1412.1
2015-May-07 17:26N 31°05' E 123°29'1011.2
2015-May-07 16:34N 31°04' E 123°17'1110.9
2015-May-07 15:34N 31°04' E 123°05'1110.8
2015-May-07 14:34N 31°04' E 122°52'1110.7
2015-May-07 13:33N 31°04' E 122°39'10 9.8
2015-May-07 12:34N 31°05' E 122°28'9 8.5
2015-May-07 11:34N 31°06' E 122°18'1414.3
2015-May-07 10:34N 31°14' E 122°04'1514.6
2015-May-07 09:33N 31°18' E 121°48'1211.6
2015-May-07 08:33N 31°23' E 121°35'6 6.0
2015-May-07 07:33N 31°26' E 121°29'8 8.4
2015-May-07 06:33N 31°32' E 121°22'1111.4
2015-May-07 05:33N 31°40' E 121°13'1313.1
2015-May-07 04:33N 31°47' E 120°60'1312.8
2015-May-07 03:33N 31°58' E 120°51'1312.7
2015-May-07 02:33N 31°60' E 120°37'9 8.5
2015-May-07 01:33N 31°59' E 120°27'1111.1
2015-May-07 00:34N 31°56' E 120°14'1010.2
2015-May-06 23:33N 31°58' E 120°02'9 9.0
2015-May-06 22:33N 32°05' E 119°55'1 0.6
2015-May-06 21:30N 32°05' E 119°56'0 0.2
2015-May-06 20:28N 32°05' E 119°56'0 0.1
2015-May-06 19:28N 32°05' E 119°56'0 0.0
2015-May-06 18:15N 32°05' E 119°56'0 0.0
2015-May-06 16:16N 32°05' E 119°56'0 0.0
2015-May-06 15:04N 32°05' E 119°56'0 0.1
2015-May-06 14:24N 32°05' E 119°56'0 0.2
2015-May-06 13:33N 32°05' E 119°56'10 9.9
2015-May-06 12:33N 32°15' E 119°52'10 7.9
2015-May-06 11:15N 32°13' E 119°40'  
2015-Apr-30 04:08N 32°13' E 119°54'813.2
2015-Apr-30 03:33N 32°05' E 119°55'1111.3
2015-Apr-30 02:33N 31°57' E 120°05'1110.7
2015-Apr-30 01:33N 31°57' E 120°18'1 1.0
2015-Apr-30 00:31N 31°57' E 120°19'0 0.0
2015-Apr-29 23:31N 31°57' E 120°19'0 0.0
2015-Apr-29 22:25N 31°57' E 120°19'0 0.0
2015-Apr-29 21:31N 31°57' E 120°19'0 0.0
2015-Apr-29 20:25N 31°57' E 120°19'0 0.0
2015-Apr-29 19:31N 31°57' E 120°19'0 0.0
2015-Apr-29 18:31N 31°57' E 120°19'0 0.0
2015-Apr-29 17:31N 31°57' E 120°19'0 0.0
2015-Apr-29 16:31N 31°57' E 120°19'0 0.0
2015-Apr-29 15:31N 31°57' E 120°19'0 0.0
2015-Apr-29 14:31N 31°57' E 120°19'0 0.0
2015-Apr-29 13:25N 31°57' E 120°19'0 0.0
2015-Apr-29 12:31N 31°57' E 120°19'0 0.0
2015-Apr-29 11:13N 31°57' E 120°19'0 0.0
2015-Apr-29 10:19N 31°57' E 120°19'0 0.0
2015-Apr-29 09:31N 31°57' E 120°19'0 0.0
2015-Apr-29 08:25N 31°57' E 120°19'0 0.0
2015-Apr-29 07:25N 31°57' E 120°19'0 0.0
2015-Apr-29 06:31N 31°57' E 120°19'0 0.0
2015-Apr-29 04:31N 31°57' E 120°19'0 0.0
2015-Apr-29 03:19N 31°57' E 120°19'0 0.0
2015-Apr-29 02:31N 31°57' E 120°19'0 0.0
2015-Apr-29 01:32N 31°57' E 120°19'0 0.0
2015-Apr-29 00:31N 31°57' E 120°19'0 0.0
2015-Apr-28 23:25N 31°57' E 120°19'0 0.0
2015-Apr-28 22:19N 31°57' E 120°19'0 0.0
2015-Apr-28 21:31N 31°57' E 120°19'0 0.0
2015-Apr-28 20:13N 31°57' E 120°19'0 0.0
2015-Apr-28 19:31N 31°57' E 120°19'0 0.0
2015-Apr-28 18:31N 31°57' E 120°19'0 0.0
2015-Apr-28 17:13N 31°57' E 120°19'  

Dump ship's entire track history